La Reine, Canada
Current Conditions -  °F | °C
As of 10:00 PM on Monday 20 Oct 2014 (Local Time) from CYUY Reporting Station
Overcast Overcast  
Wind Chill: 32°   Ceiling: 14000
Heat Index: 37°   Visibility: 15mi
Dew Point: 32°   Wind: 7mph
Humidity: 81%   Direction: 20°NNE
Pressure: 29.96"   Gusts: NA
Location:  48.87°N, 79.5°W
Report Text: CYUY 210200Z 02006KT 15SM OVC140 03/M00 A2996 RMK AC8 SLP159
Loading
Personal Weather Stations






























Interactive Weather Map
Tropical Storm Tracking
New forecast layout! Learn more

10-Day Weather Forecast

Advertisements
Track Severe Weather on mobile